Time;durP1;ratioP1;P1;durP2;ratioP2;P2;SDS_P1;SDS_P2;PMS_P1;PMS_P2;Temp;Humidity;BMP_temperature;BMP_pressure;BME280_temperature;BME280_humidity;BME280_pressure;Samples;Min_cycle;Max_cycle;Signal;HPM_P1;HPM_P2
2023/06/24 00:00:59;;;;;;;2.25;1.45;;;18.60;97.70;;;;;;5124952;27;20027;-66
2023/06/24 00:03:24;;;;;;;1.27;1.02;;;18.60;97.50;;;;;;5134985;27;20031;-66
2023/06/24 00:05:50;;;;;;;1.40;1.15;;;18.60;97.30;;;;;;5134822;27;20027;-69
2023/06/24 00:08:20;;;;;;;2.28;1.40;;;18.60;97.50;;;;;;5134435;27;20027;-66
2023/06/24 00:10:47;;;;;;;4.80;1.20;;;18.60;97.40;;;;;;5134604;27;20386;-66
2023/06/24 00:13:14;;;;;;;1.95;1.00;;;18.60;97.40;;;;;;5133967;27;20240;-66
2023/06/24 00:15:42;;;;;;;1.73;1.25;;;18.50;97.40;;;;;;5134600;27;20452;-66
2023/06/24 00:18:09;;;;;;;3.92;1.20;;;18.50;97.60;;;;;;5134089;27;20125;-66
2023/06/24 00:20:35;;;;;;;2.13;1.13;;;18.50;97.30;;;;;;5134584;27;20113;-65
2023/06/24 00:23:01;;;;;;;3.80;1.23;;;18.50;97.60;;;;;;5134053;27;20102;-66
2023/06/24 00:25:27;;;;;;;3.42;1.15;;;18.50;97.60;;;;;;5133982;27;20114;-65
2023/06/24 00:27:52;;;;;;;2.28;1.20;;;18.50;97.70;;;;;;5114684;27;20028;-71
2023/06/24 00:30:18;;;;;;;1.48;1.00;;;18.40;97.80;;;;;;5113963;28;20031;-65
2023/06/24 00:32:43;;;;;;;1.70;1.05;;;18.40;98.00;;;;;;5113765;28;20027;-65
2023/06/24 00:35:12;;;;;;;2.40;1.38;;;18.40;98.00;;;;;;5113309;28;20031;-65
2023/06/24 00:37:38;;;;;;;3.13;1.05;;;18.40;98.10;;;;;;5113409;28;20028;-65
2023/06/24 00:40:04;;;;;;;2.85;1.30;;;18.40;98.20;;;;;;5113120;28;20036;-65
2023/06/24 00:42:31;;;;;;;1.88;1.20;;;18.40;98.40;;;;;;5113323;28;20032;-65
2023/06/24 00:44:56;;;;;;;4.82;1.30;;;18.30;98.40;;;;;;5113105;28;20039;-65
2023/06/24 00:47:23;;;;;;;1.95;1.20;;;18.40;98.70;;;;;;5113846;28;20051;-65
2023/06/24 00:49:49;;;;;;;1.60;1.35;;;18.30;98.80;;;;;;5113486;28;20088;-65
2023/06/24 00:52:15;;;;;;;2.58;1.38;;;18.30;99.00;;;;;;5112992;28;20644;-65
2023/06/24 00:54:42;;;;;;;2.75;1.30;;;18.30;99.00;;;;;;5113398;28;20106;-65
2023/06/24 00:57:08;;;;;;;2.70;1.27;;;18.30;99.10;;;;;;5112866;28;20027;-66
2023/06/24 00:59:35;;;;;;;3.22;1.50;;;18.30;99.30;;;;;;5124280;27;20087;-65
2023/06/24 01:02:01;;;;;;;2.85;1.40;;;18.30;99.30;;;;;;5133322;27;20082;-65
2023/06/24 01:04:28;;;;;;;3.33;1.38;;;18.20;99.40;;;;;;5133527;27;20031;-65
2023/06/24 01:06:54;;;;;;;3.53;1.40;;;18.30;99.40;;;;;;5133791;27;20531;-65
2023/06/24 01:09:20;;;;;;;2.22;1.27;;;18.20;99.40;;;;;;5133117;27;20019;-65
2023/06/24 01:11:46;;;;;;;1.58;1.45;;;18.30;99.50;;;;;;5133802;27;20054;-65
2023/06/24 01:14:12;;;;;;;2.75;1.23;;;18.30;99.50;;;;;;5133239;27;20103;-65
2023/06/24 01:16:57;;;;;;;4.00;1.40;;;18.20;99.90;;;;;;5133708;27;20027;-65
2023/06/24 01:20:10;;;;;;;2.33;1.45;;;18.20;99.80;;;;;;5131324;27;20059;-65
2023/06/24 01:22:59;;;;;;;2.15;1.38;;;18.20;99.90;;;;;;5133520;27;20035;-65
2023/06/24 01:25:44;;;;;;;2.95;1.33;;;18.20;99.80;;;;;;5094700;28;20488;-65
2023/06/24 01:28:40;;;;;;;4.18;1.45;;;18.20;99.90;;;;;;5133052;28;20019;-65
2023/06/24 01:31:48;;;;;;;2.58;1.60;;;18.20;99.90;;;;;;5133030;28;20031;-65
2023/06/24 01:34:34;;;;;;;2.30;1.50;;;18.20;99.90;;;;;;5093060;28;20035;-65
2023/06/24 01:37:00;;;;;;;1.77;1.50;;;18.20;99.90;;;;;;5133023;28;20053;-71
2023/06/24 01:39:27;;;;;;;2.50;1.80;;;18.20;99.90;;;;;;5133284;28;20519;-65
2023/06/24 01:42:06;;;;;;;2.92;1.50;;;18.20;99.90;;;;;;5133768;28;20031;-65
2023/06/24 01:44:33;;;;;;;2.58;1.60;;;18.20;99.90;;;;;;5133500;28;20395;-65
2023/06/24 01:46:59;;;;;;;2.58;1.80;;;18.20;99.90;;;;;;5133141;27;20043;-72
2023/06/24 01:49:28;;;;;;;3.13;1.92;;;18.20;99.90;;;;;;5136368;27;20038;-65
2023/06/24 01:51:58;;;;;;;3.17;1.70;;;18.20;99.90;;;;;;5137239;27;20464;-65
2023/06/24 01:54:26;;;;;;;3.05;1.67;;;18.20;99.90;;;;;;5130275;27;20464;-65
2023/06/24 01:56:55;;;;;;;2.53;1.77;;;18.20;99.90;;;;;;5117150;28;20102;-65
2023/06/24 01:59:22;;;;;;;2.08;1.80;;;18.20;99.90;;;;;;5115957;28;20031;-66
2023/06/24 02:01:51;;;;;;;3.42;2.10;;;18.20;99.90;;;;;;5098520;28;20118;-66
2023/06/24 02:04:18;;;;;;;5.43;2.58;;;18.10;99.90;;;;;;5116138;28;20084;-66
2023/06/24 02:06:44;;;;;;;1.90;1.60;;;18.10;99.90;;;;;;5116675;28;20024;-66
2023/06/24 02:09:11;;;;;;;2.45;1.63;;;18.10;99.90;;;;;;5116091;28;20123;-66
2023/06/24 02:11:38;;;;;;;2.15;1.70;;;18.10;99.90;;;;;;5116567;28;20156;-66
2023/06/24 02:14:05;;;;;;;2.03;1.70;;;18.10;99.90;;;;;;5116084;28;20031;-64
2023/06/24 02:16:34;;;;;;;2.72;1.67;;;18.10;99.90;;;;;;5116263;28;20016;-66
2023/06/24 02:19:03;;;;;;;2.80;2.00;;;18.10;99.90;;;;;;5116471;28;20084;-64
2023/06/24 02:21:29;;;;;;;2.08;1.88;;;18.10;99.90;;;;;;5098660;28;20031;-66
2023/06/24 02:23:56;;;;;;;2.30;1.90;;;18.10;99.90;;;;;;5116921;27;20161;-67
2023/06/24 02:26:23;;;;;;;2.40;1.77;;;18.00;99.90;;;;;;5136073;27;20501;-66
2023/06/24 02:28:50;;;;;;;3.38;2.00;;;18.00;99.90;;;;;;5136836;27;20023;-65
2023/06/24 02:31:17;;;;;;;1.92;1.63;;;18.00;99.90;;;;;;5136287;27;20050;-69
2023/06/24 02:33:43;;;;;;;2.42;1.92;;;18.00;99.90;;;;;;5136402;27;20368;-64
2023/06/24 02:36:09;;;;;;;3.58;1.80;;;18.00;99.90;;;;;;5136148;27;20088;-65
2023/06/24 02:38:35;;;;;;;2.53;1.60;;;17.90;99.90;;;;;;5136648;27;20441;-65
2023/06/24 02:41:04;;;;;;;3.65;1.55;;;17.90;99.90;;;;;;5136509;27;20023;-65
2023/06/24 02:43:30;;;;;;;2.65;1.60;;;17.90;99.90;;;;;;5136453;27;20049;-65
2023/06/24 02:45:57;;;;;;;3.60;1.80;;;17.80;99.90;;;;;;5136183;27;20057;-66
2023/06/24 02:48:24;;;;;;;1.98;1.75;;;17.80;99.90;;;;;;5135766;27;20508;-66
2023/06/24 02:50:50;;;;;;;2.20;1.83;;;17.80;99.90;;;;;;5133103;27;20375;-66
2023/06/24 02:53:16;;;;;;;2.53;1.88;;;17.80;99.90;;;;;;5135895;27;20031;-66
2023/06/24 02:55:43;;;;;;;2.00;1.80;;;17.80;99.90;;;;;;5136275;27;20418;-66
2023/06/24 02:58:10;;;;;;;2.50;1.80;;;17.80;99.90;;;;;;5135697;27;20103;-66
2023/06/24 03:00:38;;;;;;;2.30;1.73;;;17.80;99.90;;;;;;5136004;27;20031;-66
2023/06/24 03:03:05;;;;;;;5.43;1.80;;;17.80;99.90;;;;;;5136151;27;20056;-71
2023/06/24 03:05:32;;;;;;;1.90;1.50;;;17.80;99.90;;;;;;5135939;27;20030;-66
2023/06/24 03:07:58;;;;;;;1.70;1.60;;;17.70;99.90;;;;;;5136046;27;20020;-66
2023/06/24 03:10:27;;;;;;;1.90;1.60;;;17.70;99.90;;;;;;5135490;27;20033;-66
2023/06/24 03:12:53;;;;;;;1.77;1.60;;;17.70;99.90;;;;;;5135990;27;20024;-66
2023/06/24 03:15:19;;;;;;;2.25;1.80;;;17.70;99.90;;;;;;5135425;27;20034;-66
2023/06/24 03:17:46;;;;;;;2.25;1.48;;;17.70;99.90;;;;;;5136023;27;20055;-66
2023/06/24 03:20:11;;;;;;;3.45;1.90;;;17.70;99.90;;;;;;5135274;27;20027;-66
2023/06/24 03:22:37;;;;;;;2.90;1.60;;;17.70;99.90;;;;;;5135621;27;20031;-66
2023/06/24 03:25:03;;;;;;;2.33;1.98;;;17.70;99.90;;;;;;5135722;27;20095;-66
2023/06/24 03:27:29;;;;;;;2.20;1.73;;;17.60;99.90;;;;;;5135133;27;20110;-65
2023/06/24 03:29:54;;;;;;;1.63;1.30;;;17.60;99.90;;;;;;5135993;27;20031;-66
2023/06/24 03:32:20;;;;;;;1.73;1.63;;;17.60;99.90;;;;;;5135122;27;20029;-66
2023/06/24 03:34:46;;;;;;;3.05;1.20;;;17.60;99.90;;;;;;5135344;27;20043;-66
2023/06/24 03:37:11;;;;;;;2.25;1.70;;;17.60;99.90;;;;;;5135059;27;20391;-67
2023/06/24 03:39:37;;;;;;;1.55;1.45;;;17.60;99.90;;;;;;5135612;27;20063;-64
2023/06/24 03:42:03;;;;;;;1.75;1.65;;;17.60;99.90;;;;;;5135728;27;20038;-66
2023/06/24 03:44:28;;;;;;;2.20;1.30;;;17.50;99.90;;;;;;5134453;27;20023;-66
2023/06/24 03:46:54;;;;;;;4.40;1.60;;;17.50;99.90;;;;;;5116585;27;20079;-66
2023/06/24 03:49:20;;;;;;;1.30;1.08;;;17.50;99.90;;;;;;5134759;27;20024;-65
2023/06/24 03:51:45;;;;;;;3.17;1.58;;;17.50;99.90;;;;;;5135240;27;20050;-65
2023/06/24 03:54:11;;;;;;;2.13;1.42;;;17.60;99.90;;;;;;5116824;27;20020;-66
2023/06/24 03:56:37;;;;;;;2.17;1.30;;;17.60;99.90;;;;;;5114989;28;20099;-65
2023/06/24 03:59:03;;;;;;;1.63;1.30;;;17.50;99.90;;;;;;5114555;28;20026;-65
2023/06/24 04:01:31;;;;;;;1.05;1.00;;;17.50;99.90;;;;;;5113910;28;20028;-65
2023/06/24 04:03:57;;;;;;;1.38;0.88;;;17.40;99.90;;;;;;5114340;28;20471;-65
2023/06/24 04:06:23;;;;;;;1.80;1.00;;;17.50;99.90;;;;;;5113894;28;20471;-66
2023/06/24 04:08:51;;;;;;;0.98;0.88;;;17.40;99.90;;;;;;5114673;28;20035;-65
2023/06/24 04:11:17;;;;;;;1.15;0.82;;;17.40;99.90;;;;;;5112758;28;20463;-65
2023/06/24 04:13:44;;;;;;;1.33;0.88;;;17.30;99.90;;;;;;5114284;28;20028;-65
2023/06/24 04:16:09;;;;;;;1.25;0.70;;;17.30;99.90;;;;;;5114151;28;20467;-72
2023/06/24 04:18:39;;;;;;;2.80;0.80;;;17.20;99.90;;;;;;5114108;28;20023;-65
2023/06/24 04:21:06;;;;;;;1.60;0.70;;;17.20;99.90;;;;;;5113959;28;20035;-65
2023/06/24 04:23:32;;;;;;;0.95;0.80;;;17.20;99.90;;;;;;5113512;28;20156;-66
2023/06/24 04:25:58;;;;;;;0.73;0.73;;;17.20;99.90;;;;;;5113923;28;20106;-64
2023/06/24 04:28:23;;;;;;;0.80;0.80;;;17.20;99.90;;;;;;5113190;28;20099;-65
2023/06/24 04:30:49;;;;;;;1.63;0.70;;;17.20;99.90;;;;;;5114092;28;20031;-65
2023/06/24 04:33:15;;;;;;;1.00;0.80;;;17.20;99.90;;;;;;5113371;28;20472;-66
2023/06/24 04:35:40;;;;;;;1.35;0.70;;;17.20;99.90;;;;;;5125953;27;20023;-65
2023/06/24 04:38:06;;;;;;;0.80;0.70;;;17.20;99.90;;;;;;5134344;27;20031;-65
2023/06/24 04:40:31;;;;;;;1.13;0.80;;;17.10;99.90;;;;;;5133939;27;20653;-65
2023/06/24 04:42:57;;;;;;;0.88;0.80;;;17.20;99.90;;;;;;5134290;27;20492;-65
2023/06/24 04:45:23;;;;;;;0.85;0.60;;;17.20;99.90;;;;;;5133308;27;20468;-65
2023/06/24 04:47:49;;;;;;;1.42;0.90;;;17.20;99.90;;;;;;5134089;27;20023;-65
2023/06/24 04:50:14;;;;;;;0.95;0.70;;;17.20;99.90;;;;;;5133462;27;20419;-72
2023/06/24 04:52:40;;;;;;;0.60;0.60;;;17.10;99.90;;;;;;5134055;27;20031;-65
2023/06/24 04:55:06;;;;;;;0.60;0.60;;;17.10;99.90;;;;;;5133875;27;20371;-65
2023/06/24 04:57:33;;;;;;;0.85;0.70;;;17.10;99.90;;;;;;5133517;27;20030;-65
2023/06/24 04:59:58;;;;;;;2.75;0.82;;;17.10;99.90;;;;;;5125024;27;20032;-65
2023/06/24 05:02:25;;;;;;;0.73;0.63;;;17.10;99.90;;;;;;5112828;28;20031;-65
2023/06/24 05:04:51;;;;;;;0.85;0.60;;;17.10;99.90;;;;;;5113332;28;20034;-65
2023/06/24 05:07:17;;;;;;;0.52;0.52;;;17.10;99.90;;;;;;5113019;28;20031;-66
2023/06/24 05:09:43;;;;;;;0.98;0.50;;;17.10;99.90;;;;;;5113263;28;20452;-67
2023/06/24 05:12:09;;;;;;;0.60;0.60;;;17.10;99.90;;;;;;5113204;28;20392;-67
2023/06/24 05:14:36;;;;;;;0.40;0.40;;;17.10;99.90;;;;;;5112592;28;20019;-66
2023/06/24 05:17:02;;;;;;;0.80;0.70;;;17.10;99.90;;;;;;5113161;28;20102;-65
2023/06/24 05:19:28;;;;;;;0.90;0.50;;;17.20;99.90;;;;;;5112241;28;20434;-65
2023/06/24 05:21:54;;;;;;;0.43;0.43;;;17.10;99.90;;;;;;5113065;28;20103;-65
2023/06/24 05:24:19;;;;;;;0.70;0.57;;;17.20;99.90;;;;;;5112522;28;20031;-66
2023/06/24 05:26:48;;;;;;;0.90;0.70;;;17.20;99.90;;;;;;5113120;28;20028;-65
2023/06/24 05:29:14;;;;;;;0.70;0.70;;;17.30;99.90;;;;;;5113004;28;20023;-65
2023/06/24 05:31:40;;;;;;;1.80;0.50;;;17.30;99.90;;;;;;5112376;28;20338;-65
2023/06/24 05:34:06;;;;;;;0.43;0.43;;;17.30;99.90;;;;;;5113182;28;20111;-65
2023/06/24 05:36:31;;;;;;;0.77;0.60;;;17.40;99.90;;;;;;5111917;28;20024;-65
2023/06/24 05:38:57;;;;;;;0.95;0.60;;;17.50;99.90;;;;;;5112527;28;20030;-65
2023/06/24 05:41:22;;;;;;;1.17;0.75;;;17.50;99.90;;;;;;5112204;28;20024;-65
2023/06/24 05:43:48;;;;;;;3.13;1.00;;;17.60;99.90;;;;;;5112846;28;20042;-65
2023/06/24 05:46:14;;;;;;;1.15;0.82;;;17.70;99.90;;;;;;5112964;28;20043;-66
2023/06/24 05:48:39;;;;;;;0.82;0.70;;;17.80;99.90;;;;;;5112297;28;20047;-65
2023/06/24 05:51:05;;;;;;;1.35;0.90;;;18.00;99.90;;;;;;5112853;28;20031;-65
2023/06/24 05:53:30;;;;;;;1.50;0.90;;;18.00;99.90;;;;;;5112238;28;20073;-67
2023/06/24 05:55:56;;;;;;;1.00;0.68;;;18.00;99.90;;;;;;5112413;28;20035;-66
2023/06/24 05:58:21;;;;;;;1.67;0.70;;;18.00;99.90;;;;;;5112248;28;20375;-67
2023/06/24 06:00:47;;;;;;;0.50;0.50;;;18.00;99.90;;;;;;5115026;28;20456;-67
2023/06/24 06:03:13;;;;;;;1.85;0.70;;;17.90;99.90;;;;;;5133174;28;20027;-65
2023/06/24 06:05:38;;;;;;;0.95;0.70;;;17.90;99.90;;;;;;5132664;28;20102;-66
2023/06/24 06:08:04;;;;;;;0.73;0.47;;;17.90;99.90;;;;;;5133172;28;20061;-66
2023/06/24 06:10:30;;;;;;;0.60;0.60;;;17.90;99.90;;;;;;5132273;28;20023;-66
2023/06/24 06:12:55;;;;;;;0.50;0.50;;;17.90;99.90;;;;;;5133155;28;20042;-66
2023/06/24 06:15:21;;;;;;;0.47;0.47;;;17.90;99.90;;;;;;5132631;28;20076;-73
2023/06/24 06:17:47;;;;;;;0.60;0.60;;;17.80;99.90;;;;;;5133072;28;20023;-66
2023/06/24 06:20:12;;;;;;;0.60;0.50;;;17.80;99.90;;;;;;5132626;28;20391;-66
2023/06/24 06:22:38;;;;;;;2.70;0.60;;;17.70;99.90;;;;;;5132461;28;20038;-66
2023/06/24 06:25:07;;;;;;;0.50;0.50;;;17.70;99.90;;;;;;5123109;28;20063;-66
2023/06/24 06:27:33;;;;;;;0.60;0.60;;;17.60;99.90;;;;;;5119498;28;20023;-66
2023/06/24 06:29:59;;;;;;;1.67;0.57;;;17.60;99.90;;;;;;5127963;28;20500;-67
2023/06/24 06:32:25;;;;;;;1.15;0.50;;;17.50;99.90;;;;;;5131946;28;20051;-66
2023/06/24 06:34:51;;;;;;;0.75;0.35;;;17.40;99.90;;;;;;5113989;28;20456;-66
2023/06/24 06:37:16;;;;;;;1.27;0.30;;;17.40;99.90;;;;;;5115969;28;20371;-66
2023/06/24 06:39:42;;;;;;;0.50;0.50;;;17.30;99.90;;;;;;5115383;28;20495;-67
2023/06/24 06:42:07;;;;;;;2.08;0.60;;;17.30;99.90;;;;;;5125957;27;20027;-66
2023/06/24 06:44:33;;;;;;;0.82;0.40;;;17.30;99.90;;;;;;5124095;27;20035;-66
2023/06/24 06:46:59;;;;;;;0.50;0.43;;;17.30;99.90;;;;;;5115984;28;20067;-66
2023/06/24 06:49:24;;;;;;;0.70;0.57;;;17.30;99.90;;;;;;5115136;28;20045;-67
2023/06/24 06:51:52;;;;;;;0.57;0.55;;;17.40;99.90;;;;;;5131219;27;20451;-66
2023/06/24 06:54:18;;;;;;;3.13;0.68;;;17.40;99.90;;;;;;5135230;27;20047;-66
2023/06/24 06:56:44;;;;;;;0.70;0.68;;;17.40;99.90;;;;;;5135604;27;20076;-66
2023/06/24 06:59:10;;;;;;;0.63;0.63;;;17.40;99.90;;;;;;5125966;27;20023;-66
2023/06/24 07:01:35;;;;;;;0.65;0.52;;;17.40;99.90;;;;;;5115006;28;20035;-65
2023/06/24 07:04:01;;;;;;;0.60;0.60;;;17.40;99.90;;;;;;5115395;28;20027;-65
2023/06/24 07:06:27;;;;;;;0.80;0.80;;;17.30;99.90;;;;;;5096691;28;20031;-65
2023/06/24 07:08:53;;;;;;;0.70;0.70;;;17.30;99.90;;;;;;5115607;28;20035;-65
2023/06/24 07:11:19;;;;;;;0.55;0.50;;;17.40;99.90;;;;;;5115201;28;20376;-65
2023/06/24 07:13:45;;;;;;;0.80;0.80;;;17.40;99.90;;;;;;5114684;28;20114;-65
2023/06/24 07:16:11;;;;;;;0.95;0.68;;;17.40;99.90;;;;;;5115085;28;20028;-65
2023/06/24 07:18:37;;;;;;;1.13;1.00;;;17.40;99.90;;;;;;5114578;28;20110;-66
2023/06/24 07:21:02;;;;;;;2.35;1.00;;;17.50;99.90;;;;;;5115048;28;20058;-66
2023/06/24 07:23:28;;;;;;;3.25;1.60;;;17.50;99.90;;;;;;5117033;27;20027;-67
2023/06/24 07:25:53;;;;;;;4.25;1.92;;;17.40;99.90;;;;;;5115031;28;20378;-67
2023/06/24 07:28:19;;;;;;;2.00;1.30;;;17.40;99.90;;;;;;5114649;28;20034;-65
2023/06/24 07:30:45;;;;;;;1.58;1.23;;;17.40;99.90;;;;;;5114409;28;20631;-65
2023/06/24 07:33:10;;;;;;;1.40;1.30;;;17.40;99.90;;;;;;5114278;28;20027;-67
2023/06/24 07:35:36;;;;;;;1.42;1.08;;;17.40;99.90;;;;;;5114235;28;20031;-67
2023/06/24 07:38:01;;;;;;;1.90;1.40;;;17.50;99.90;;;;;;5114649;28;20016;-67
2023/06/24 07:40:27;;;;;;;1.40;1.30;;;17.50;99.90;;;;;;5114172;28;20032;-66
2023/06/24 07:42:54;;;;;;;1.50;1.30;;;17.50;99.90;;;;;;5114440;28;20384;-66
2023/06/24 07:45:19;;;;;;;1.50;1.40;;;17.50;99.90;;;;;;5095125;28;20042;-66
2023/06/24 07:47:45;;;;;;;1.50;1.40;;;17.40;99.90;;;;;;5113888;28;20040;-65
2023/06/24 07:50:11;;;;;;;1.92;1.48;;;17.50;99.90;;;;;;5114268;28;20031;-65
2023/06/24 07:52:37;;;;;;;3.38;1.42;;;17.50;99.90;;;;;;5113659;28;20028;-65
2023/06/24 07:55:03;;;;;;;1.85;1.40;;;17.50;99.90;;;;;;5114448;28;20024;-66
2023/06/24 07:57:30;;;;;;;2.35;1.60;;;17.60;99.90;;;;;;5113414;28;20028;-66
2023/06/24 07:59:56;;;;;;;5.25;1.85;;;17.60;99.90;;;;;;5131637;27;20063;-65
2023/06/24 08:02:21;;;;;;;3.42;1.60;;;17.60;99.90;;;;;;5134623;27;20051;-65
2023/06/24 08:04:47;;;;;;;3.10;2.00;;;17.70;99.90;;;;;;5134087;27;20026;-65
2023/06/24 08:07:12;;;;;;;2.88;1.90;;;17.70;99.90;;;;;;5134791;27;20026;-66
2023/06/24 08:09:38;;;;;;;2.78;2.05;;;17.70;99.90;;;;;;5134183;27;20027;-65
2023/06/24 08:12:04;;;;;;;3.40;2.00;;;17.70;99.90;;;;;;5116060;27;20383;-65
2023/06/24 08:14:30;;;;;;;3.05;2.25;;;17.70;99.90;;;;;;5133730;27;20029;-68
2023/06/24 08:16:55;;;;;;;2.00;1.80;;;17.70;99.90;;;;;;5134509;27;20023;-66
2023/06/24 08:19:21;;;;;;;4.10;2.08;;;17.70;99.90;;;;;;5134731;27;20030;-67
2023/06/24 08:21:46;;;;;;;3.92;2.00;;;17.70;99.90;;;;;;5133795;27;20065;-67
2023/06/24 08:24:12;;;;;;;2.20;2.00;;;17.70;99.90;;;;;;5133904;27;20098;-66
2023/06/24 08:26:38;;;;;;;2.22;1.83;;;17.70;99.90;;;;;;5133330;27;20106;-66
2023/06/24 08:29:03;;;;;;;3.75;2.22;;;17.80;99.90;;;;;;5134523;27;20034;-66
2023/06/24 08:31:29;;;;;;;5.88;2.28;;;17.70;99.90;;;;;;5133938;27;20027;-73
2023/06/24 08:33:58;;;;;;;2.92;1.98;;;17.70;99.90;;;;;;5134301;27;20083;-66
2023/06/24 08:36:26;;;;;;;4.38;2.50;;;17.70;99.90;;;;;;5133974;27;20023;-66
2023/06/24 08:38:52;;;;;;;2.40;2.17;;;17.70;99.90;;;;;;5133368;27;20037;-66
2023/06/24 08:41:18;;;;;;;2.88;2.05;;;17.60;99.90;;;;;;5131846;27;20121;-66
2023/06/24 08:43:44;;;;;;;3.72;2.55;;;17.60;99.90;;;;;;5133682;27;20031;-66
2023/06/24 08:46:10;;;;;;;3.50;2.67;;;17.60;99.90;;;;;;5134462;27;20047;-66
2023/06/24 08:48:40;;;;;;;2.50;2.30;;;17.60;99.90;;;;;;5133978;27;20031;-66
2023/06/24 08:51:08;;;;;;;4.63;2.22;;;17.60;99.90;;;;;;5133327;27;20030;-66
2023/06/24 08:53:35;;;;;;;3.45;2.40;;;17.60;99.90;;;;;;5131302;27;20084;-67
2023/06/24 08:56:01;;;;;;;3.35;2.53;;;17.60;99.90;;;;;;5134257;27;20071;-66
2023/06/24 08:58:27;;;;;;;3.30;2.35;;;17.60;99.90;;;;;;5133585;27;20111;-66
2023/06/24 09:00:53;;;;;;;4.22;2.65;;;17.50;99.90;;;;;;5133526;27;20055;-66
2023/06/24 09:03:18;;;;;;;3.33;2.40;;;17.50;99.90;;;;;;5133999;27;20100;-66
2023/06/24 09:05:44;;;;;;;2.97;2.67;;;17.50;99.90;;;;;;5133507;27;20048;-66
2023/06/24 09:08:10;;;;;;;4.05;3.15;;;17.50;99.90;;;;;;5134223;27;20024;-67
2023/06/24 09:10:37;;;;;;;3.40;2.60;;;17.50;99.90;;;;;;5133546;27;20481;-66
2023/06/24 09:13:06;;;;;;;4.78;3.03;;;17.50;99.90;;;;;;5133814;27;20402;-67
2023/06/24 09:15:36;;;;;;;3.25;2.75;;;17.50;99.90;;;;;;5133722;27;20023;-67
2023/06/24 09:18:03;;;;;;;4.53;2.97;;;17.60;99.90;;;;;;5133865;27;20031;-66
2023/06/24 09:20:31;;;;;;;2.92;2.63;;;17.50;99.90;;;;;;5133509;27;20031;-66
2023/06/24 09:23:01;;;;;;;2.72;2.42;;;17.60;99.90;;;;;;5133657;27;20072;-65
2023/06/24 09:25:27;;;;;;;2.80;2.50;;;17.60;99.90;;;;;;5115280;27;20468;-65
2023/06/24 09:27:55;;;;;;;2.67;1.85;;;17.60;99.90;;;;;;5133177;27;20031;-65
2023/06/24 09:30:22;;;;;;;2.30;2.00;;;17.60;99.90;;;;;;5133710;27;20456;-65
2023/06/24 09:32:49;;;;;;;2.88;2.00;;;17.60;99.90;;;;;;5133298;27;20156;-65
2023/06/24 09:35:18;;;;;;;2.78;1.98;;;17.70;99.90;;;;;;5133370;27;20100;-65
2023/06/24 09:37:52;;;;;;;3.05;2.13;;;17.70;99.90;;;;;;5133205;28;20095;-66
2023/06/24 09:40:18;;;;;;;2.45;2.05;;;17.80;99.90;;;;;;5133278;28;20491;-65
2023/06/24 09:43:00;;;;;;;2.45;2.17;;;17.80;99.90;;;;;;5133155;28;20028;-65
2023/06/24 09:45:27;;;;;;;3.15;2.25;;;17.90;99.90;;;;;;5133625;28;20059;-67
2023/06/24 09:47:53;;;;;;;2.90;2.08;;;18.00;99.90;;;;;;5133001;28;20311;-66
2023/06/24 09:50:20;;;;;;;3.00;2.20;;;18.00;99.90;;;;;;5133110;28;20027;-67
2023/06/24 09:52:46;;;;;;;3.20;1.92;;;18.00;99.90;;;;;;5133427;28;20494;-65
2023/06/24 09:55:16;;;;;;;2.53;2.30;;;18.00;99.90;;;;;;5128613;28;20027;-66
2023/06/24 09:57:45;;;;;;;2.28;1.98;;;17.90;99.90;;;;;;5112472;28;20019;-65
2023/06/24 10:00:15;;;;;;;2.95;2.53;;;18.00;99.90;;;;;;5112602;28;20039;-66
2023/06/24 10:02:40;;;;;;;2.78;2.00;;;17.90;99.90;;;;;;5094725;28;20032;-66
2023/06/24 10:05:07;;;;;;;4.05;2.28;;;18.00;99.90;;;;;;5112497;28;20032;-66
2023/06/24 10:07:34;;;;;;;2.78;2.33;;;18.20;99.90;;;;;;5112640;28;20076;-66
2023/06/24 10:10:03;;;;;;;2.17;1.98;;;18.20;99.90;;;;;;5115389;28;20041;-66
2023/06/24 10:12:28;;;;;;;3.35;2.50;;;18.30;99.90;;;;;;5116719;28;20403;-66
2023/06/24 10:14:54;;;;;;;3.58;2.55;;;18.30;99.90;;;;;;5116576;28;20047;-66
2023/06/24 10:17:20;;;;;;;2.30;2.10;;;18.20;99.90;;;;;;5116514;28;20027;-66
2023/06/24 10:19:46;;;;;;;2.60;2.35;;;18.20;99.90;;;;;;5116016;28;20038;-66
2023/06/24 10:22:12;;;;;;;5.95;2.45;;;18.20;99.90;;;;;;5116470;28;20031;-66
2023/06/24 10:24:41;;;;;;;3.00;2.70;;;18.30;99.90;;;;;;5116124;28;20452;-66
2023/06/24 10:27:15;;;;;;;3.45;3.15;;;18.30;99.90;;;;;;5116276;28;20032;-66
2023/06/24 10:29:48;;;;;;;3.70;3.28;;;18.30;99.90;;;;;;5115998;28;20019;-66
2023/06/24 10:32:15;;;;;;;5.63;4.00;;;18.20;99.90;;;;;;5116724;28;20070;-66
2023/06/24 10:34:43;;;;;;;4.38;3.97;;;18.10;99.90;;;;;;5115535;28;20374;-66
2023/06/24 10:37:11;;;;;;;4.50;3.90;;;18.10;99.90;;;;;;5097753;28;20061;-66
2023/06/24 10:39:40;;;;;;;4.70;3.97;;;18.00;99.90;;;;;;5115650;28;20047;-74
2023/06/24 10:42:26;;;;;;;4.25;3.85;;;17.90;99.90;;;;;;5116686;27;20135;-66
2023/06/24 10:44:56;;;;;;;4.60;3.88;;;17.80;99.90;;;;;;5115620;28;20028;-67
2023/06/24 10:47:23;;;;;;;5.63;3.80;;;17.80;99.90;;;;;;5115649;28;20400;-66
2023/06/24 10:49:49;;;;;;;4.60;3.85;;;17.80;99.90;;;;;;5115693;28;20066;-66
2023/06/24 10:52:22;;;;;;;4.97;3.72;;;17.70;99.90;;;;;;5115882;28;20440;-66
2023/06/24 10:54:49;;;;;;;5.78;4.03;;;17.70;99.90;;;;;;5115696;28;20085;-66
2023/06/24 10:57:15;;;;;;;7.10;4.55;;;17.70;99.90;;;;;;5115710;28;20020;-67
2023/06/24 10:59:41;;;;;;;4.93;4.30;;;17.70;99.90;;;;;;5115884;27;20035;-67
2023/06/24 11:02:14;;;;;;;5.70;4.18;;;17.70;99.90;;;;;;5117676;27;20157;-66
2023/06/24 11:04:48;;;;;;;5.13;3.92;;;17.70;99.90;;;;;;5115071;28;20027;-67
2023/06/24 11:07:15;;;;;;;5.22;4.43;;;17.70;99.90;;;;;;5115699;28;20028;-66
2023/06/24 11:09:42;;;;;;;5.20;4.70;;;17.70;99.90;;;;;;5115340;28;20065;-66
2023/06/24 11:12:11;;;;;;;5.72;4.90;;;17.70;99.90;;;;;;5115701;28;20476;-66
2023/06/24 11:14:40;;;;;;;8.88;6.25;;;17.70;99.90;;;;;;5115552;28;20036;-66
2023/06/24 11:17:06;;;;;;;6.55;4.30;;;17.70;99.90;;;;;;5115534;28;20077;-66
2023/06/24 11:19:32;;;;;;;5.10;4.43;;;17.70;99.90;;;;;;5115513;28;20027;-66
2023/06/24 11:22:01;;;;;;;6.20;5.40;;;17.80;99.90;;;;;;5114818;28;20115;-66
2023/06/24 11:24:30;;;;;;;6.38;5.30;;;17.80;99.90;;;;;;5115610;28;20069;-66
2023/06/24 11:26:56;;;;;;;7.03;5.85;;;17.80;99.90;;;;;;5114950;28;20042;-66
2023/06/24 11:29:22;;;;;;;5.95;5.28;;;17.80;99.90;;;;;;5115431;28;20106;-66
2023/06/24 11:31:51;;;;;;;7.20;5.55;;;17.80;99.90;;;;;;5114993;28;20044;-65
2023/06/24 11:34:17;;;;;;;5.80;5.20;;;17.80;99.90;;;;;;5115836;28;20024;-66
2023/06/24 11:36:43;;;;;;;7.20;5.68;;;17.90;99.90;;;;;;5115091;28;20080;-66
2023/06/24 11:39:19;;;;;;;8.45;6.20;;;17.90;99.90;;;;;;5115693;28;20456;-66
2023/06/24 11:41:45;;;;;;;6.18;5.53;;;17.90;99.90;;;;;;5114391;28;20123;-67
2023/06/24 11:44:11;;;;;;;6.70;5.63;;;17.90;99.90;;;;;;5114933;28;20103;-66
2023/06/24 11:46:37;;;;;;;7.22;5.78;;;17.90;99.90;;;;;;5115036;28;20097;-67
2023/06/24 11:49:07;;;;;;;7.88;6.07;;;17.80;99.90;;;;;;5114297;28;20027;-66
2023/06/24 11:51:34;;;;;;;6.82;5.65;;;17.90;99.90;;;;;;5114847;28;20111;-66
2023/06/24 11:54:02;;;;;;;7.93;6.45;;;17.90;99.90;;;;;;5114526;28;20457;-66
2023/06/24 11:56:54;;;;;;;8.13;5.97;;;17.80;99.90;;;;;;5114899;28;20027;-66
2023/06/24 11:59:26;;;;;;;9.60;5.95;;;17.90;99.90;;;;;;5111834;28;20063;-67
2023/06/24 12:01:57;;;;;;;7.80;6.45;;;17.80;99.90;;;;;;5130167;27;20027;-67
2023/06/24 12:04:34;;;;;;;6.72;5.88;;;17.90;99.90;;;;;;5135313;27;20027;-66
2023/06/24 12:07:00;;;;;;;6.40;5.63;;;17.80;99.90;;;;;;5116221;27;20034;-66
2023/06/24 12:09:26;;;;;;;8.85;6.28;;;17.80;99.90;;;;;;5135514;27;20027;-66
2023/06/24 12:11:52;;;;;;;7.07;6.03;;;17.90;99.90;;;;;;5134725;27;20034;-67
2023/06/24 12:14:18;;;;;;;7.55;5.88;;;17.90;99.90;;;;;;5135129;27;20023;-66
2023/06/24 12:16:44;;;;;;;6.30;5.45;;;17.90;99.90;;;;;;5134316;27;20515;-67
2023/06/24 12:19:11;;;;;;;7.25;5.70;;;17.90;99.90;;;;;;5134976;27;20104;-66
2023/06/24 12:21:37;;;;;;;6.65;5.45;;;17.90;99.90;;;;;;5122201;27;20035;-66
2023/06/24 12:24:04;;;;;;;8.18;6.28;;;17.80;99.90;;;;;;5113496;28;20028;-66
2023/06/24 12:26:30;;;;;;;8.43;5.93;;;17.80;99.90;;;;;;5114038;28;20451;-66
2023/06/24 12:28:56;;;;;;;8.20;6.05;;;17.80;99.90;;;;;;5119897;27;20118;-66
2023/06/24 12:31:22;;;;;;;7.70;6.50;;;17.80;99.90;;;;;;5113553;28;20032;-66
2023/06/24 12:33:48;;;;;;;9.52;6.38;;;17.80;99.90;;;;;;5121800;27;20023;-66
2023/06/24 12:36:13;;;;;;;7.47;6.70;;;17.70;99.90;;;;;;5120990;27;20028;-65
2023/06/24 12:38:40;;;;;;;8.05;6.65;;;17.70;99.90;;;;;;5130535;27;20023;-66
2023/06/24 12:41:06;;;;;;;6.72;5.75;;;17.70;99.90;;;;;;5132298;27;20216;-66
2023/06/24 12:43:32;;;;;;;8.93;6.63;;;17.70;99.90;;;;;;5116007;27;20451;-66
2023/06/24 12:45:58;;;;;;;8.02;6.25;;;17.70;99.90;;;;;;5133430;27;20456;-66
2023/06/24 12:48:24;;;;;;;8.00;6.75;;;17.80;99.90;;;;;;5115728;27;20050;-66